createdAt,value
2023-02-12T00:00:33.063Z,1004.02
2023-02-12T00:01:33.049Z,1004.03
2023-02-12T00:02:33.104Z,1004.04
2023-02-12T00:03:33.075Z,1004.06
2023-02-12T00:04:33.056Z,1004.08
2023-02-12T00:05:33.061Z,1004.09
2023-02-12T00:06:33.050Z,1004.10
2023-02-12T00:07:33.025Z,1004.11
2023-02-12T00:08:33.017Z,1004.12
2023-02-12T00:09:33.028Z,1004.13
2023-02-12T00:10:33.003Z,1004.11
2023-02-12T00:11:33.008Z,1004.11
2023-02-12T00:12:32.998Z,1004.09
2023-02-12T00:13:32.974Z,1004.08
2023-02-12T00:14:32.999Z,1004.08
2023-02-12T00:15:33.024Z,1004.09
2023-02-12T00:16:32.982Z,1004.09
2023-02-12T00:17:33.007Z,1004.09
2023-02-12T00:18:32.977Z,1004.09
2023-02-12T00:19:32.947Z,1004.09
2023-02-12T00:20:32.976Z,1004.09
2023-02-12T00:21:32.965Z,1004.09
2023-02-12T00:22:32.940Z,1004.10
2023-02-12T00:23:32.941Z,1004.10
2023-02-12T00:24:32.936Z,1004.10
2023-02-12T00:25:32.910Z,1004.11
2023-02-12T00:26:32.931Z,1004.11
2023-02-12T00:27:32.900Z,1004.11
2023-02-12T00:28:32.952Z,1004.12
2023-02-12T00:29:32.904Z,1004.14
2023-02-12T00:30:32.956Z,1004.15
2023-02-12T00:31:32.921Z,1004.17
2023-02-12T00:32:32.896Z,1004.18
2023-02-12T00:33:32.874Z,1004.18
2023-02-12T00:34:32.890Z,1004.16
2023-02-12T00:35:32.865Z,1004.14
2023-02-12T00:36:32.882Z,1004.12
2023-02-12T00:37:32.859Z,1004.10
2023-02-12T00:38:32.885Z,1004.09
2023-02-12T00:39:32.850Z,1004.08
2023-02-12T00:40:32.860Z,1004.07
2023-02-12T00:41:32.838Z,1004.09
2023-02-12T00:42:32.832Z,1004.10
2023-02-12T00:43:32.829Z,1004.12
2023-02-12T00:44:32.852Z,1004.13
2023-02-12T00:45:32.840Z,1004.14
2023-02-12T00:46:32.901Z,1004.13
2023-02-12T00:47:32.801Z,1004.11
2023-02-12T00:48:32.810Z,1004.10
2023-02-12T00:49:32.802Z,1004.08
2023-02-12T00:50:32.812Z,1004.07
2023-02-12T00:51:32.762Z,1004.06
2023-02-12T00:52:32.789Z,1004.06
2023-02-12T00:53:32.774Z,1004.05
2023-02-12T00:54:32.794Z,1004.04
2023-02-12T00:55:32.751Z,1004.04
2023-02-12T00:56:32.770Z,1004.04
2023-02-12T00:57:32.758Z,1004.04
2023-02-12T00:58:32.870Z,1004.05
2023-02-12T00:59:32.722Z,1004.04
2023-02-12T01:00:32.730Z,1004.04
2023-02-12T01:01:32.821Z,1004.04
2023-02-12T01:02:32.718Z,1004.05
2023-02-12T01:03:32.759Z,1004.05
2023-02-12T01:04:32.727Z,1004.04
2023-02-12T01:05:32.710Z,1004.04
2023-02-12T01:06:32.750Z,1004.04
2023-02-12T01:07:32.702Z,1004.04
2023-02-12T01:08:32.699Z,1004.05
2023-02-12T01:09:32.679Z,1004.06
2023-02-12T01:10:32.673Z,1004.06
2023-02-12T01:11:32.673Z,1004.07
2023-02-12T01:12:32.689Z,1004.07
2023-02-12T01:13:32.655Z,1004.07
2023-02-12T01:14:32.651Z,1004.07
2023-02-12T01:15:32.637Z,1004.06
2023-02-12T01:16:32.738Z,1004.05
2023-02-12T01:17:32.656Z,1004.04
2023-02-12T01:18:32.639Z,1004.04
2023-02-12T01:19:32.640Z,1004.03
2023-02-12T01:20:32.608Z,1004.03
2023-02-12T01:21:32.634Z,1004.02
2023-02-12T01:22:32.610Z,1004.01
2023-02-12T01:23:32.595Z,1004.02
2023-02-12T01:24:32.629Z,1004.04
2023-02-12T01:25:32.607Z,1004.05
2023-02-12T01:26:32.589Z,1004.05
2023-02-12T01:27:32.584Z,1004.06
2023-02-12T01:28:32.668Z,1004.07
2023-02-12T01:29:32.575Z,1004.08
2023-02-12T01:30:32.567Z,1004.08
2023-02-12T01:31:32.622Z,1004.09
2023-02-12T01:32:32.555Z,1004.10
2023-02-12T01:33:32.571Z,1004.10
2023-02-12T01:34:32.560Z,1004.11
2023-02-12T01:35:32.559Z,1004.10
2023-02-12T01:36:32.521Z,1004.11
2023-02-12T01:37:32.526Z,1004.10
2023-02-12T01:38:32.518Z,1004.09
2023-02-12T01:39:32.516Z,1004.08
2023-02-12T01:40:32.513Z,1004.08
2023-02-12T01:41:32.528Z,1004.07
2023-02-12T01:42:32.493Z,1004.07
2023-02-12T01:43:32.485Z,1004.07
2023-02-12T01:44:32.487Z,1004.06
2023-02-12T01:45:32.482Z,1004.06
2023-02-12T01:46:32.531Z,1004.05
2023-02-12T01:47:32.517Z,1004.04
2023-02-12T01:48:32.458Z,1004.03
2023-02-12T01:49:32.445Z,1004.02
2023-02-12T01:50:32.452Z,1004.01
2023-02-12T01:51:32.449Z,1003.99
2023-02-12T01:52:32.437Z,1003.98
2023-02-12T01:53:32.464Z,1003.97
2023-02-12T01:54:32.437Z,1003.96
2023-02-12T01:55:32.434Z,1003.95
2023-02-12T01:56:32.422Z,1003.95
2023-02-12T01:57:32.418Z,1003.94
2023-02-12T01:58:32.395Z,1003.95
2023-02-12T01:59:32.413Z,1003.95
2023-02-12T02:00:32.410Z,1003.95
2023-02-12T02:01:32.394Z,1003.95
2023-02-12T02:02:32.386Z,1003.96
2023-02-12T02:03:32.449Z,1003.95
2023-02-12T02:04:32.389Z,1003.95
2023-02-12T02:05:32.404Z,1003.95
2023-02-12T02:06:32.358Z,1003.94
2023-02-12T02:07:32.357Z,1003.94
2023-02-12T02:08:32.356Z,1003.94
2023-02-12T02:09:32.361Z,1003.93
2023-02-12T02:10:32.337Z,1003.92
2023-02-12T02:11:32.363Z,1003.92
2023-02-12T02:12:32.330Z,1003.91
2023-02-12T02:13:32.319Z,1003.89
2023-02-12T02:14:32.318Z,1003.90
2023-02-12T02:15:32.318Z,1003.90
2023-02-12T02:16:32.335Z,1003.91
2023-02-12T02:17:32.293Z,1003.92
2023-02-12T02:18:32.304Z,1003.93
2023-02-12T02:19:32.312Z,1003.93
2023-02-12T02:20:32.315Z,1003.94
2023-02-12T02:21:32.276Z,1003.94
2023-02-12T02:22:32.264Z,1003.93
2023-02-12T02:23:32.275Z,1003.94
2023-02-12T02:24:32.253Z,1003.93
2023-02-12T02:25:32.258Z,1003.91
2023-02-12T02:26:32.263Z,1003.90
2023-02-12T02:27:32.259Z,1003.88
2023-02-12T02:28:32.259Z,1003.85
2023-02-12T02:29:32.227Z,1003.83
2023-02-12T02:30:32.250Z,1003.81
2023-02-12T02:31:32.362Z,1003.81
2023-02-12T02:32:32.235Z,1003.80
2023-02-12T02:33:32.197Z,1003.80
2023-02-12T02:34:32.210Z,1003.81
2023-02-12T02:35:32.213Z,1003.82
2023-02-12T02:36:32.238Z,1003.82
2023-02-12T02:37:32.194Z,1003.82
2023-02-12T02:38:32.171Z,1003.82
2023-02-12T02:39:32.164Z,1003.82
2023-02-12T02:40:32.216Z,1003.81
2023-02-12T02:41:32.156Z,1003.80
2023-02-12T02:42:32.155Z,1003.78
2023-02-12T02:43:32.144Z,1003.76
2023-02-12T02:44:32.150Z,1003.74
2023-02-12T02:45:32.175Z,1003.72
2023-02-12T02:46:32.143Z,1003.71
2023-02-12T02:47:32.128Z,1003.72
2023-02-12T02:48:32.118Z,1003.72
2023-02-12T02:49:32.113Z,1003.71
2023-02-12T02:50:32.105Z,1003.71
2023-02-12T02:51:32.121Z,1003.72
2023-02-12T02:52:32.106Z,1003.73
2023-02-12T02:53:32.112Z,1003.74
2023-02-12T02:54:32.098Z,1003.75
2023-02-12T02:55:32.112Z,1003.77
2023-02-12T02:56:32.083Z,1003.78
2023-02-12T02:57:32.100Z,1003.80
2023-02-12T02:58:32.106Z,1003.80
2023-02-12T02:59:32.059Z,1003.80
2023-02-12T03:00:32.149Z,1003.80
2023-02-12T03:01:32.065Z,1003.79
2023-02-12T03:02:32.056Z,1003.77
2023-02-12T03:03:32.044Z,1003.76
2023-02-12T03:04:32.083Z,1003.75
2023-02-12T03:05:32.043Z,1003.73
2023-02-12T03:06:32.026Z,1003.73
2023-02-12T03:07:32.059Z,1003.74
2023-02-12T03:08:32.023Z,1003.74
2023-02-12T03:09:32.025Z,1003.74
2023-02-12T03:10:32.001Z,1003.75
2023-02-12T03:11:32.019Z,1003.75
2023-02-12T03:12:31.992Z,1003.75
2023-02-12T03:13:31.974Z,1003.76
2023-02-12T03:14:31.978Z,1003.77
2023-02-12T03:15:32.015Z,1003.78
2023-02-12T03:16:32.075Z,1003.79
2023-02-12T03:17:31.955Z,1003.79
2023-02-12T03:18:31.991Z,1003.79
2023-02-12T03:19:31.968Z,1003.79
2023-02-12T03:20:31.945Z,1003.80
2023-02-12T03:21:31.951Z,1003.80
2023-02-12T03:22:31.957Z,1003.80
2023-02-12T03:23:31.958Z,1003.79
2023-02-12T03:24:31.932Z,1003.79
2023-02-12T03:25:31.916Z,1003.79
2023-02-12T03:26:31.945Z,1003.79
2023-02-12T03:27:31.914Z,1003.80
2023-02-12T03:28:31.948Z,1003.80
2023-02-12T03:29:31.897Z,1003.80
2023-02-12T03:30:31.924Z,1003.79
2023-02-12T03:31:31.963Z,1003.79
2023-02-12T03:32:31.913Z,1003.79
2023-02-12T03:33:31.877Z,1003.80
2023-02-12T03:34:31.874Z,1003.78
2023-02-12T03:35:31.886Z,1003.77
2023-02-12T03:36:31.896Z,1003.77
2023-02-12T03:37:31.861Z,1003.78
2023-02-12T03:38:31.863Z,1003.77
2023-02-12T03:39:31.836Z,1003.78
2023-02-12T03:40:31.849Z,1003.78
2023-02-12T03:41:31.852Z,1003.79
2023-02-12T03:42:31.849Z,1003.78
2023-02-12T03:43:31.823Z,1003.79
2023-02-12T03:44:31.824Z,1003.79
2023-02-12T03:45:31.837Z,1003.79
2023-02-12T03:46:31.819Z,1003.79
2023-02-12T03:47:31.815Z,1003.79
2023-02-12T03:48:31.787Z,1003.80
2023-02-12T03:49:31.787Z,1003.81
2023-02-12T03:50:31.782Z,1003.83
2023-02-12T03:51:31.775Z,1003.84
2023-02-12T03:52:31.781Z,1003.85
2023-02-12T03:53:31.768Z,1003.85
2023-02-12T03:54:31.768Z,1003.84
2023-02-12T03:55:31.747Z,1003.84
2023-02-12T03:56:31.747Z,1003.84
2023-02-12T03:57:31.734Z,1003.84
2023-02-12T03:58:31.753Z,1003.83
2023-02-12T03:59:31.721Z,1003.83
2023-02-12T04:00:31.721Z,1003.84
2023-02-12T04:01:31.848Z,1003.85
2023-02-12T04:02:31.736Z,1003.86
2023-02-12T04:03:31.691Z,1003.87
2023-02-12T04:04:31.773Z,1003.89
2023-02-12T04:05:31.679Z,1003.90
2023-02-12T04:06:31.682Z,1003.92
2023-02-12T04:07:31.678Z,1003.93
2023-02-12T04:08:31.690Z,1003.95
2023-02-12T04:09:31.686Z,1003.97
2023-02-12T04:10:31.664Z,1003.98
2023-02-12T04:11:31.653Z,1003.99
2023-02-12T04:12:31.660Z,1003.99
2023-02-12T04:13:31.644Z,1004.00
2023-02-12T04:14:31.665Z,1004.01
2023-02-12T04:15:31.632Z,1004.02
2023-02-12T04:16:31.678Z,1004.03
2023-02-12T04:17:31.630Z,1004.04
2023-02-12T04:18:31.636Z,1004.04
2023-02-12T04:19:31.638Z,1004.05
2023-02-12T04:20:31.633Z,1004.06
2023-02-12T04:21:31.637Z,1004.07
2023-02-12T04:22:31.598Z,1004.08
2023-02-12T04:23:31.615Z,1004.09
2023-02-12T04:24:31.588Z,1004.09
2023-02-12T04:25:31.573Z,1004.10
2023-02-12T04:26:31.571Z,1004.12
2023-02-12T04:27:31.584Z,1004.13
2023-02-12T04:28:31.656Z,1004.14
2023-02-12T04:29:31.577Z,1004.15
2023-02-12T04:30:31.669Z,1004.17
2023-02-12T04:31:31.607Z,1004.18
2023-02-12T04:32:31.548Z,1004.18
2023-02-12T04:33:31.567Z,1004.19
2023-02-12T04:34:31.528Z,1004.20
2023-02-12T04:35:31.530Z,1004.20
2023-02-12T04:36:31.528Z,1004.21
2023-02-12T04:37:31.504Z,1004.21
2023-02-12T04:38:31.521Z,1004.22
2023-02-12T04:39:31.521Z,1004.23
2023-02-12T04:40:31.499Z,1004.24
2023-02-12T04:41:31.635Z,1004.24
2023-02-12T04:42:31.487Z,1004.25
2023-02-12T04:43:31.477Z,1004.26
2023-02-12T04:44:31.485Z,1004.27
2023-02-12T04:45:31.497Z,1004.28
2023-02-12T04:46:31.546Z,1004.29
2023-02-12T04:47:31.460Z,1004.30
2023-02-12T04:48:31.458Z,1004.31
2023-02-12T04:49:31.453Z,1004.30
2023-02-12T04:50:31.463Z,1004.30
2023-02-12T04:51:31.444Z,1004.30
2023-02-12T04:52:31.444Z,1004.29
2023-02-12T04:53:31.443Z,1004.29
2023-02-12T04:54:31.445Z,1004.30
2023-02-12T04:55:31.420Z,1004.30
2023-02-12T04:56:31.417Z,1004.30
2023-02-12T04:57:31.411Z,1004.29
2023-02-12T04:58:31.425Z,1004.29
2023-02-12T04:59:31.413Z,1004.29
2023-02-12T05:00:31.399Z,1004.28
2023-02-12T05:01:31.620Z,1004.27
2023-02-12T05:02:31.398Z,1004.27
2023-02-12T05:03:31.376Z,1004.26
2023-02-12T05:04:31.380Z,1004.26
2023-02-12T05:05:31.397Z,1004.25
2023-02-12T05:06:31.362Z,1004.24
2023-02-12T05:07:31.352Z,1004.23
2023-02-12T05:08:31.356Z,1004.23
2023-02-12T05:09:31.338Z,1004.25
2023-02-12T05:10:31.343Z,1004.26
2023-02-12T05:11:31.352Z,1004.27
2023-02-12T05:12:31.324Z,1004.28
2023-02-12T05:13:31.321Z,1004.29
2023-02-12T05:14:31.316Z,1004.30
2023-02-12T05:15:31.369Z,1004.30
2023-02-12T05:16:31.329Z,1004.30
2023-02-12T05:17:31.304Z,1004.30
2023-02-12T05:18:31.294Z,1004.31
2023-02-12T05:19:31.299Z,1004.30
2023-02-12T05:20:31.278Z,1004.30
2023-02-12T05:21:31.284Z,1004.30
2023-02-12T05:22:31.292Z,1004.31
2023-02-12T05:23:31.260Z,1004.31
2023-02-12T05:24:31.294Z,1004.31
2023-02-12T05:25:31.256Z,1004.31
2023-02-12T05:26:31.283Z,1004.31
2023-02-12T05:27:31.244Z,1004.31
2023-02-12T05:28:31.307Z,1004.31
2023-02-12T05:29:31.236Z,1004.31
2023-02-12T05:30:31.251Z,1004.31
2023-02-12T05:31:31.332Z,1004.31
2023-02-12T05:32:31.218Z,1004.32
2023-02-12T05:33:31.218Z,1004.34
2023-02-12T05:34:31.209Z,1004.35
2023-02-12T05:35:31.236Z,1004.36
2023-02-12T05:36:31.229Z,1004.38
2023-02-12T05:37:31.193Z,1004.39
2023-02-12T05:38:31.177Z,1004.41
2023-02-12T05:39:31.175Z,1004.41
2023-02-12T05:40:31.168Z,1004.41
2023-02-12T05:41:31.166Z,1004.41
2023-02-12T05:42:31.193Z,1004.41
2023-02-12T05:43:31.148Z,1004.40
2023-02-12T05:44:31.145Z,1004.39
2023-02-12T05:45:31.137Z,1004.38
2023-02-12T05:46:31.198Z,1004.38
2023-02-12T05:47:31.154Z,1004.37
2023-02-12T05:48:31.127Z,1004.37
2023-02-12T05:49:31.117Z,1004.38
2023-02-12T05:50:31.110Z,1004.39
2023-02-12T05:51:31.099Z,1004.39
2023-02-12T05:52:31.126Z,1004.41
2023-02-12T05:53:31.097Z,1004.42
2023-02-12T05:54:31.120Z,1004.43
2023-02-12T05:55:31.080Z,1004.44
2023-02-12T05:56:31.096Z,1004.44
2023-02-12T05:57:31.059Z,1004.45
2023-02-12T05:58:31.110Z,1004.45
2023-02-12T05:59:31.052Z,1004.45
2023-02-12T06:00:31.091Z,1004.45
2023-02-12T06:01:31.050Z,1004.46
2023-02-12T06:02:31.083Z,1004.47
2023-02-12T06:03:31.055Z,1004.48
2023-02-12T06:04:31.060Z,1004.49
2023-02-12T06:05:31.022Z,1004.49
2023-02-12T06:06:31.024Z,1004.50
2023-02-12T06:07:31.030Z,1004.49
2023-02-12T06:08:31.017Z,1004.50
2023-02-12T06:09:30.998Z,1004.50
2023-02-12T06:10:31.016Z,1004.50
2023-02-12T06:11:30.991Z,1004.50
2023-02-12T06:12:31.004Z,1004.50
2023-02-12T06:13:30.997Z,1004.50
2023-02-12T06:14:32.097Z,1004.48
2023-02-12T06:15:30.967Z,1004.48
2023-02-12T06:16:31.025Z,1004.47
2023-02-12T06:17:30.994Z,1004.48
2023-02-12T06:18:30.950Z,1004.48
2023-02-12T06:19:30.936Z,1004.48
2023-02-12T06:20:30.946Z,1004.48
2023-02-12T06:21:30.929Z,1004.48
2023-02-12T06:22:30.924Z,1004.49
2023-02-12T06:23:30.938Z,1004.50
2023-02-12T06:24:30.920Z,1004.51
2023-02-12T06:25:30.926Z,1004.50
2023-02-12T06:26:30.919Z,1004.50
2023-02-12T06:27:30.909Z,1004.50
2023-02-12T06:28:30.969Z,1004.51
2023-02-12T06:29:30.923Z,1004.51
2023-02-12T06:30:30.881Z,1004.52
2023-02-12T06:31:31.066Z,1004.51
2023-02-12T06:32:30.932Z,1004.52
2023-02-12T06:33:30.938Z,1004.53
2023-02-12T06:34:30.880Z,1004.54
2023-02-12T06:35:30.874Z,1004.55
2023-02-12T06:36:30.856Z,1004.55
2023-02-12T06:37:30.936Z,1004.56
2023-02-12T06:38:30.873Z,1004.58
2023-02-12T06:39:30.849Z,1004.60
2023-02-12T06:40:30.840Z,1004.62
2023-02-12T06:41:30.859Z,1004.64
2023-02-12T06:42:32.983Z,1004.68
2023-02-12T06:43:30.855Z,1004.70
2023-02-12T06:44:30.816Z,1004.71
2023-02-12T06:45:30.827Z,1004.73
2023-02-12T06:46:30.864Z,1004.75
2023-02-12T06:47:30.845Z,1004.77
2023-02-12T06:48:30.810Z,1004.79
2023-02-12T06:49:30.798Z,1004.80
2023-02-12T06:50:30.792Z,1004.81
2023-02-12T06:51:30.777Z,1004.82
2023-02-12T06:52:30.802Z,1004.83
2023-02-12T06:53:30.778Z,1004.84
2023-02-12T06:54:30.783Z,1004.86
2023-02-12T06:55:30.782Z,1004.87
2023-02-12T06:56:30.771Z,1004.88
2023-02-12T06:57:30.757Z,1004.88
2023-02-12T06:58:30.763Z,1004.89
2023-02-12T06:59:30.749Z,1004.89
2023-02-12T07:00:30.891Z,1004.89
2023-02-12T07:01:30.763Z,1004.90
2023-02-12T07:02:30.734Z,1004.90
2023-02-12T07:03:30.723Z,1004.91
2023-02-12T07:04:30.723Z,1004.93
2023-02-12T07:05:30.714Z,1004.95
2023-02-12T07:06:30.722Z,1004.96
2023-02-12T07:07:30.720Z,1004.97
2023-02-12T07:08:30.709Z,1004.98
2023-02-12T07:09:30.688Z,1004.99
2023-02-12T07:10:30.723Z,1004.99
2023-02-12T07:11:30.689Z,1004.99
2023-02-12T07:12:30.721Z,1005.00
2023-02-12T07:13:30.687Z,1005.01
2023-02-12T07:14:30.693Z,1005.01
2023-02-12T07:15:30.685Z,1005.02
2023-02-12T07:16:30.704Z,1005.02
2023-02-12T07:17:30.638Z,1005.02
2023-02-12T07:18:30.703Z,1005.02
2023-02-12T07:19:30.625Z,1005.03
2023-02-12T07:20:30.717Z,1005.04
2023-02-12T07:21:30.630Z,1005.03
2023-02-12T07:22:30.618Z,1005.04
2023-02-12T07:23:30.610Z,1005.05
2023-02-12T07:24:30.625Z,1005.06
2023-02-12T07:25:30.615Z,1005.07
2023-02-12T07:26:30.617Z,1005.08
2023-02-12T07:27:30.596Z,1005.10
2023-02-12T07:28:30.614Z,1005.12
2023-02-12T07:29:30.574Z,1005.14
2023-02-12T07:30:30.833Z,1005.14
2023-02-12T07:31:30.673Z,1005.15
2023-02-12T07:32:30.570Z,1005.15
2023-02-12T07:33:30.551Z,1005.15
2023-02-12T07:34:30.542Z,1005.15
2023-02-12T07:35:30.536Z,1005.16
2023-02-12T07:36:30.553Z,1005.16
2023-02-12T07:37:30.529Z,1005.16
2023-02-12T07:38:30.523Z,1005.16
2023-02-12T07:39:30.524Z,1005.17
2023-02-12T07:40:30.522Z,1005.18
2023-02-12T07:41:30.536Z,1005.19
2023-02-12T07:42:30.511Z,1005.21
2023-02-12T07:43:30.497Z,1005.22
2023-02-12T07:44:30.494Z,1005.24
2023-02-12T07:45:30.497Z,1005.25
2023-02-12T07:46:30.524Z,1005.26
2023-02-12T07:47:30.474Z,1005.26
2023-02-12T07:48:30.482Z,1005.25
2023-02-12T07:49:30.473Z,1005.24
2023-02-12T07:50:30.477Z,1005.24
2023-02-12T07:51:30.475Z,1005.23
2023-02-12T07:52:30.470Z,1005.23
2023-02-12T07:53:30.435Z,1005.23
2023-02-12T07:54:30.450Z,1005.23
2023-02-12T07:55:30.430Z,1005.23
2023-02-12T07:56:30.439Z,1005.23
2023-02-12T07:57:30.414Z,1005.24
2023-02-12T07:58:30.428Z,1005.24
2023-02-12T07:59:30.410Z,1005.25
2023-02-12T08:00:30.397Z,1005.25
2023-02-12T08:01:30.412Z,1005.26
2023-02-12T08:02:30.415Z,1005.26
2023-02-12T08:03:30.373Z,1005.27
2023-02-12T08:04:30.535Z,1005.28
2023-02-12T08:05:30.392Z,1005.28
2023-02-12T08:06:30.362Z,1005.29
2023-02-12T08:07:30.369Z,1005.29
2023-02-12T08:08:30.359Z,1005.30
2023-02-12T08:09:30.389Z,1005.31
2023-02-12T08:10:32.395Z,1005.32
2023-02-12T08:11:30.351Z,1005.32
2023-02-12T08:12:30.385Z,1005.33
2023-02-12T08:13:30.353Z,1005.33
2023-02-12T08:14:30.361Z,1005.34
2023-02-12T08:15:30.320Z,1005.36
2023-02-12T08:16:30.358Z,1005.36
2023-02-12T08:17:30.320Z,1005.37
2023-02-12T08:18:30.313Z,1005.37
2023-02-12T08:19:30.299Z,1005.38
2023-02-12T08:20:30.324Z,1005.38
2023-02-12T08:21:30.293Z,1005.39
2023-02-12T08:22:30.291Z,1005.39
2023-02-12T08:23:30.281Z,1005.39
2023-02-12T08:24:30.301Z,1005.40
2023-02-12T08:25:30.271Z,1005.40
2023-02-12T08:26:30.286Z,1005.41
2023-02-12T08:27:30.300Z,1005.41
2023-02-12T08:28:30.276Z,1005.43
2023-02-12T08:29:30.271Z,1005.44
2023-02-12T08:30:30.246Z,1005.45
2023-02-12T08:31:30.262Z,1005.46
2023-02-12T08:32:30.293Z,1005.46
2023-02-12T08:33:30.242Z,1005.46
2023-02-12T08:34:30.225Z,1005.45
2023-02-12T08:35:30.229Z,1005.44
2023-02-12T08:36:30.208Z,1005.42
2023-02-12T08:37:30.202Z,1005.40
2023-02-12T08:38:30.211Z,1005.40
2023-02-12T08:39:30.190Z,1005.40
2023-02-12T08:40:30.226Z,1005.41
2023-02-12T08:41:30.211Z,1005.42
2023-02-12T08:42:30.181Z,1005.43
2023-02-12T08:43:30.194Z,1005.43
2023-02-12T08:44:30.182Z,1005.44
2023-02-12T08:45:30.171Z,1005.44
2023-02-12T08:46:30.210Z,1005.46
2023-02-12T08:47:31.403Z,1005.47
2023-02-12T08:48:30.156Z,1005.48
2023-02-12T08:49:30.152Z,1005.48
2023-02-12T08:50:30.169Z,1005.49
2023-02-12T08:51:30.123Z,1005.50
2023-02-12T08:52:30.200Z,1005.49
2023-02-12T08:53:30.157Z,1005.48
2023-02-12T08:54:30.138Z,1005.48
2023-02-12T08:55:30.121Z,1005.47
2023-02-12T08:56:30.132Z,1005.47
2023-02-12T08:57:30.137Z,1005.48
2023-02-12T08:58:30.115Z,1005.48
2023-02-12T08:59:30.113Z,1005.49
2023-02-12T09:00:30.128Z,1005.48
2023-02-12T09:01:30.136Z,1005.49
2023-02-12T09:02:30.087Z,1005.49
2023-02-12T09:03:30.059Z,1005.49
2023-02-12T09:04:30.090Z,1005.49
2023-02-12T09:05:30.044Z,1005.49
2023-02-12T09:06:30.067Z,1005.50
2023-02-12T09:07:30.051Z,1005.51
2023-02-12T09:08:30.060Z,1005.50
2023-02-12T09:09:30.065Z,1005.51
2023-02-12T09:10:30.024Z,1005.51
2023-02-12T09:11:30.033Z,1005.52
2023-02-12T09:12:30.034Z,1005.53
2023-02-12T09:13:30.025Z,1005.54
2023-02-12T09:14:30.001Z,1005.55
2023-02-12T09:15:29.998Z,1005.56
2023-02-12T09:16:30.064Z,1005.56
2023-02-12T09:17:29.995Z,1005.56
2023-02-12T09:18:29.984Z,1005.56
2023-02-12T09:19:29.978Z,1005.55
2023-02-12T09:20:29.966Z,1005.54
2023-02-12T09:21:29.969Z,1005.54
2023-02-12T09:22:29.952Z,1005.54
2023-02-12T09:23:29.963Z,1005.56
2023-02-12T09:24:29.941Z,1005.56
2023-02-12T09:25:29.943Z,1005.57
2023-02-12T09:26:29.959Z,1005.58
2023-02-12T09:27:31.354Z,1005.60
2023-02-12T09:28:29.986Z,1005.61
2023-02-12T09:29:29.951Z,1005.63
2023-02-12T09:30:29.929Z,1005.65
2023-02-12T09:31:30.045Z,1005.66
2023-02-12T09:32:29.897Z,1005.67
2023-02-12T09:33:29.923Z,1005.67
2023-02-12T09:34:29.897Z,1005.66
2023-02-12T09:35:29.906Z,1005.66
2023-02-12T09:36:29.901Z,1005.66
2023-02-12T09:37:29.877Z,1005.67
2023-02-12T09:38:29.922Z,1005.67
2023-02-12T09:39:29.932Z,1005.68
2023-02-12T09:40:29.872Z,1005.69
2023-02-12T09:41:29.876Z,1005.72
2023-02-12T09:42:29.888Z,1005.74
2023-02-12T09:43:29.844Z,1005.76
2023-02-12T09:44:29.911Z,1005.78
2023-02-12T09:45:29.880Z,1005.79
2023-02-12T09:46:29.881Z,1005.79
2023-02-12T09:47:29.818Z,1005.81
2023-02-12T09:48:29.830Z,1005.80
2023-02-12T09:49:29.823Z,1005.80
2023-02-12T09:50:29.823Z,1005.80
2023-02-12T09:51:29.836Z,1005.81
2023-02-12T09:52:29.806Z,1005.82
2023-02-12T09:53:29.786Z,1005.82
2023-02-12T09:54:29.805Z,1005.82
2023-02-12T09:55:29.785Z,1005.81
2023-02-12T09:56:29.793Z,1005.81
2023-02-12T09:57:29.786Z,1005.80
2023-02-12T09:58:29.796Z,1005.80
2023-02-12T09:59:29.779Z,1005.78
2023-02-12T10:00:29.794Z,1005.77
2023-02-12T10:01:29.857Z,1005.78
2023-02-12T10:02:29.747Z,1005.79
2023-02-12T10:03:29.755Z,1005.81
2023-02-12T10:04:29.785Z,1005.82
2023-02-12T10:05:29.758Z,1005.82
2023-02-12T10:06:29.763Z,1005.82
2023-02-12T10:07:29.728Z,1005.82
2023-02-12T10:08:29.761Z,1005.81
2023-02-12T10:09:29.720Z,1005.80
2023-02-12T10:10:29.710Z,1005.80
2023-02-12T10:11:29.750Z,1005.80
2023-02-12T10:12:29.710Z,1005.79
2023-02-12T10:13:29.692Z,1005.80
2023-02-12T10:14:29.705Z,1005.80
2023-02-12T10:15:29.713Z,1005.80
2023-02-12T10:16:29.675Z,1005.80
2023-02-12T10:17:29.692Z,1005.80
2023-02-12T10:18:29.688Z,1005.80
2023-02-12T10:19:29.670Z,1005.81
2023-02-12T10:20:29.679Z,1005.83
2023-02-12T10:21:29.686Z,1005.85
2023-02-12T10:22:29.648Z,1005.86
2023-02-12T10:23:29.667Z,1005.87
2023-02-12T10:24:29.651Z,1005.88
2023-02-12T10:25:29.646Z,1005.87
2023-02-12T10:26:29.659Z,1005.87
2023-02-12T10:27:29.626Z,1005.85
2023-02-12T10:28:29.799Z,1005.83
2023-02-12T10:29:29.611Z,1005.83
2023-02-12T10:30:29.608Z,1005.82
2023-02-12T10:31:30.578Z,1005.82
2023-02-12T10:32:29.588Z,1005.83
2023-02-12T10:33:29.585Z,1005.83
2023-02-12T10:34:29.585Z,1005.84
2023-02-12T10:35:29.572Z,1005.84
2023-02-12T10:36:29.557Z,1005.84
2023-02-12T10:37:29.571Z,1005.84
2023-02-12T10:38:29.570Z,1005.84
2023-02-12T10:39:29.536Z,1005.84
2023-02-12T10:40:29.557Z,1005.84
2023-02-12T10:41:29.520Z,1005.84
2023-02-12T10:42:29.525Z,1005.84
2023-02-12T10:43:29.522Z,1005.84
2023-02-12T10:44:29.544Z,1005.84
2023-02-12T10:45:29.500Z,1005.85
2023-02-12T10:46:29.613Z,1005.85
2023-02-12T10:47:29.487Z,1005.84
2023-02-12T10:48:29.490Z,1005.84
2023-02-12T10:49:29.499Z,1005.83
2023-02-12T10:50:29.516Z,1005.82
2023-02-12T10:51:29.490Z,1005.81
2023-02-12T10:52:29.484Z,1005.82
2023-02-12T10:53:29.460Z,1005.81
2023-02-12T10:54:29.461Z,1005.81
2023-02-12T10:55:29.474Z,1005.79
2023-02-12T10:56:29.448Z,1005.78
2023-02-12T10:57:29.475Z,1005.77
2023-02-12T10:58:29.449Z,1005.76
2023-02-12T10:59:29.462Z,1005.74
2023-02-12T11:00:29.433Z,1005.73
2023-02-12T11:01:29.477Z,1005.74
2023-02-12T11:02:29.438Z,1005.73
2023-02-12T11:03:29.432Z,1005.72
2023-02-12T11:04:29.399Z,1005.73
2023-02-12T11:05:29.401Z,1005.72
2023-02-12T11:06:29.384Z,1005.73
2023-02-12T11:07:29.425Z,1005.72
2023-02-12T11:08:29.390Z,1005.72
2023-02-12T11:09:29.381Z,1005.71
2023-02-12T11:10:29.407Z,1005.69
2023-02-12T11:11:29.388Z,1005.67
2023-02-12T11:12:29.375Z,1005.65
2023-02-12T11:13:29.374Z,1005.63
2023-02-12T11:14:29.357Z,1005.61
2023-02-12T11:15:29.341Z,1005.60
2023-02-12T11:16:29.452Z,1005.60
2023-02-12T11:17:29.336Z,1005.59
2023-02-12T11:18:29.326Z,1005.58
2023-02-12T11:19:29.348Z,1005.57
2023-02-12T11:20:29.302Z,1005.56
2023-02-12T11:21:29.312Z,1005.55
2023-02-12T11:22:29.291Z,1005.55
2023-02-12T11:23:29.293Z,1005.55
2023-02-12T11:24:29.301Z,1005.56
2023-02-12T11:25:29.292Z,1005.56
2023-02-12T11:26:29.311Z,1005.55
2023-02-12T11:27:29.277Z,1005.56
2023-02-12T11:28:29.315Z,1005.56
2023-02-12T11:29:29.258Z,1005.56
2023-02-12T11:30:29.251Z,1005.55
2023-02-12T11:31:29.345Z,1005.55
2023-02-12T11:32:29.228Z,1005.53
2023-02-12T11:33:29.231Z,1005.52
2023-02-12T11:34:29.239Z,1005.52
2023-02-12T11:35:29.245Z,1005.51
2023-02-12T11:36:29.225Z,1005.51
2023-02-12T11:37:29.205Z,1005.51
2023-02-12T11:38:29.197Z,1005.52
2023-02-12T11:39:29.205Z,1005.53
2023-02-12T11:40:29.184Z,1005.54
2023-02-12T11:41:29.190Z,1005.54
2023-02-12T11:42:29.194Z,1005.55
2023-02-12T11:43:29.183Z,1005.55
2023-02-12T11:44:29.183Z,1005.54
2023-02-12T11:45:29.173Z,1005.52
2023-02-12T11:46:29.198Z,1005.51
2023-02-12T11:47:29.151Z,1005.50
2023-02-12T11:48:29.167Z,1005.50
2023-02-12T11:49:29.165Z,1005.50
2023-02-12T11:50:29.165Z,1005.50
2023-02-12T11:51:29.165Z,1005.50
2023-02-12T11:52:29.160Z,1005.50
2023-02-12T11:53:29.136Z,1005.50
2023-02-12T11:54:29.171Z,1005.49
2023-02-12T11:55:30.524Z,1005.47
2023-02-12T11:56:29.124Z,1005.46
2023-02-12T11:57:29.145Z,1005.45
2023-02-12T11:58:29.110Z,1005.45
2023-02-12T11:59:29.100Z,1005.44
2023-02-12T12:00:29.099Z,1005.45
2023-02-12T12:01:29.083Z,1005.45
2023-02-12T12:02:29.087Z,1005.46
2023-02-12T12:03:29.129Z,1005.47
2023-02-12T12:04:29.115Z,1005.47
2023-02-12T12:05:29.071Z,1005.46